Huvudsida
METAR-TAF:

METAR-TAF

Flygplatser :

Dubais internationella flygplats

Dubai, Förenade Arabemiraten

latitud: 25-15-10N, longitud: 055-21-52E, höjd: 8 m

Aktuellt väderrapport

Denna rapport gjordes för 55 minuter sedan, klockan 09:00 UTC
Vind 11 kt från väst/nordväst
Temperatur 38°C
Fuktighet 54%
Tryck 997 hPa
Sikt: 8000 m

METAR: OMDB 190900Z 30011KT 8000 NSC 38/27 Q0997 NOSIG

Tid: 13:55 (09:55 UTC)

Väderprognos

Denna rapport gjordes för 4 timmar och 52 minuter sedan, klockan 05:03 UTC
Prognos gäller från 19 kl. 06 UTC till 20 kl. 12 UTC
Vind 9 kt från syd
Sikt: 6000 m
Blir
från 19 kl. 07 UTC till 19 kl. 09 UTC
Vind 12 kt från nordväst
Blir
från 19 kl. 19 UTC till 19 kl. 21 UTC
Vind 5 kt från ost
Blir
från 20 kl. 07 UTC till 20 kl. 09 UTC
Vind 12 kt från nord/nordväst

TAF: OMDB 190503Z 1906/2012 17009KT 6000 NSC BECMG 1907/1909 32012KT BECMG 1919/1921 08005KT BECMG 2007/2009 33012KT

Aktuella väderrapporter och prognoser från 4000 flygplatser (METAR- och TAF-rapporter).

De tillgängliga stationerna syns som gula och röda prickar på kartan.

För musen över prickarna för att se namnen på stationerna.

Klicka sedan för att få väderrapporter och prognoser.

För att ändra kartan: Klicka på de gröna knapparna med ett svart kors på för att zooma in; den gröna knappen med ett streck på för att zooma ut; eller på de gröna pilarna för angränsande kartor.


METAR-TAF: